createdAt,value
2022-08-09T00:01:15.395Z,99348.25
2022-08-09T00:04:10.346Z,99351.09
2022-08-09T00:06:32.088Z,99349.38
2022-08-09T00:09:00.987Z,99346.28
2022-08-09T00:11:58.690Z,99359.13
2022-08-09T00:14:22.034Z,99353.41
2022-08-09T00:17:06.618Z,99350.50
2022-08-09T00:19:34.404Z,99349.88
2022-08-09T00:22:04.406Z,99342.41
2022-08-09T00:24:32.611Z,99340.63
2022-08-09T00:27:01.489Z,99345.16
2022-08-09T00:29:39.101Z,99348.53
2022-08-09T00:32:35.767Z,99354.84
2022-08-09T00:35:04.573Z,99356.25
2022-08-09T00:37:32.384Z,99355.59
2022-08-09T00:40:13.333Z,99351.22
2022-08-09T00:44:11.267Z,99357.56
2022-08-09T00:45:34.596Z,99349.88
2022-08-09T00:48:04.539Z,99359.84
2022-08-09T00:50:33.683Z,99356.00
2022-08-09T00:53:08.832Z,99357.03
2022-08-09T00:56:04.642Z,99361.63
2022-08-09T00:58:27.692Z,99359.66
2022-08-09T01:00:57.110Z,99353.84
2022-08-09T01:03:58.039Z,99364.38
2022-08-09T01:06:54.736Z,99368.31
2022-08-09T01:10:11.111Z,99364.75
2022-08-09T01:12:52.719Z,99363.88
2022-08-09T01:15:26.151Z,99366.13
2022-08-09T01:18:03.690Z,99374.50
2022-08-09T01:21:36.241Z,99365.06
2022-08-09T01:24:52.749Z,99374.50
2022-08-09T01:27:23.986Z,99370.13
2022-08-09T01:30:04.493Z,99370.94
2022-08-09T01:32:48.911Z,99383.47
2022-08-09T01:35:39.180Z,99374.25
2022-08-09T01:38:21.173Z,99373.47
2022-08-09T01:41:25.726Z,99378.69
2022-08-09T01:44:01.425Z,99379.75
2022-08-09T01:46:31.740Z,99382.16
2022-08-09T01:49:12.674Z,99385.56
2022-08-09T01:52:07.901Z,99383.88
2022-08-09T01:54:49.024Z,99386.13
2022-08-09T01:57:26.781Z,99386.69
2022-08-09T02:00:19.480Z,99385.56
2022-08-09T02:02:53.538Z,99387.81
2022-08-09T02:05:38.186Z,99392.88
2022-08-09T02:08:38.706Z,99400.72
2022-08-09T02:11:17.328Z,99396.19
2022-08-09T02:13:55.257Z,99401.25
2022-08-09T02:17:14.985Z,99405.16
2022-08-09T02:19:47.472Z,99395.66
2022-08-09T02:22:46.386Z,99394.00
2022-08-09T02:25:22.950Z,99398.50
2022-08-09T02:28:04.185Z,99404.38
2022-08-09T02:30:43.892Z,99406.34
2022-08-09T02:33:37.967Z,99408.88
2022-08-09T02:36:21.103Z,99408.03
2022-08-09T02:38:55.911Z,99406.91
2022-08-09T02:41:44.795Z,99402.97
2022-08-09T02:44:30.436Z,99404.63
2022-08-09T02:47:05.535Z,99400.16
2022-08-09T02:49:55.472Z,99408.59
2022-08-09T02:52:48.576Z,99409.16
2022-08-09T02:55:46.873Z,99400.75
2022-08-09T02:58:35.914Z,99400.16
2022-08-09T03:01:11.156Z,99410.28
2022-08-09T03:04:16.710Z,99399.63
2022-08-09T03:06:34.404Z,99400.72
2022-08-09T03:09:06.511Z,99402.72
2022-08-09T03:14:28.339Z,99398.47
2022-08-09T03:16:59.655Z,99396.75
2022-08-09T03:19:58.001Z,99393.69
2022-08-09T03:22:25.387Z,99401.25
2022-08-09T03:25:05.925Z,99402.41
2022-08-09T03:27:55.248Z,99405.19
2022-08-09T03:30:29.759Z,99408.28
2022-08-09T03:33:17.701Z,99402.28
2022-08-09T03:36:15.744Z,99405.97
2022-08-09T03:38:44.666Z,99409.41
2022-08-09T03:41:16.259Z,99414.19
2022-08-09T03:44:02.944Z,99419.47
2022-08-09T03:46:35.361Z,99422.75
2022-08-09T03:49:09.103Z,99419.63
2022-08-09T03:51:58.061Z,99420.00
2022-08-09T03:54:38.508Z,99425.34
2022-08-09T03:57:20.375Z,99422.91
2022-08-09T03:59:56.151Z,99426.47
2022-08-09T04:02:32.007Z,99430.41
2022-08-09T04:05:06.450Z,99431.88
2022-08-09T04:07:52.461Z,99432.88
2022-08-09T04:10:28.732Z,99427.47
2022-08-09T04:13:03.802Z,99426.94
2022-08-09T04:16:18.234Z,99425.56
2022-08-09T04:18:21.488Z,99431.03
2022-08-09T04:20:51.388Z,99432.72
2022-08-09T04:23:24.655Z,99432.69
2022-08-09T04:25:55.220Z,99435.47
2022-08-09T04:28:33.813Z,99439.88
2022-08-09T04:31:09.865Z,99441.69
2022-08-09T04:33:47.719Z,99447.31
2022-08-09T04:36:24.989Z,99453.97
2022-08-09T04:38:57.849Z,99454.53
2022-08-09T04:41:33.186Z,99454.34
2022-08-09T04:44:10.969Z,99460.78
2022-08-09T04:46:59.009Z,99467.81
2022-08-09T04:49:52.905Z,99468.88
2022-08-09T04:52:28.336Z,99473.72
2022-08-09T04:55:02.550Z,99482.22
2022-08-09T04:57:58.676Z,99480.63
2022-08-09T05:00:19.716Z,99476.84
2022-08-09T05:02:48.612Z,99487.41
2022-08-09T05:05:32.495Z,99484.44
2022-08-09T05:08:07.564Z,99485.91
2022-08-09T05:10:36.601Z,99491.50
2022-08-09T05:13:04.329Z,99492.88
2022-08-09T05:15:42.684Z,99498.06
2022-08-09T05:18:39.146Z,99497.97
2022-08-09T05:21:03.533Z,99506.00
2022-08-09T05:23:55.554Z,99512.16
2022-08-09T05:26:36.391Z,99498.06
2022-08-09T05:29:05.397Z,99510.09
2022-08-09T05:31:45.035Z,99514.16
2022-08-09T05:34:17.480Z,99521.69
2022-08-09T05:36:46.845Z,99526.00
2022-08-09T05:39:28.872Z,99516.94
2022-08-09T05:42:04.343Z,99512.69
2022-08-09T05:44:34.859Z,99525.25
2022-08-09T05:47:08.453Z,99532.91
2022-08-09T05:50:25.254Z,99520.25
2022-08-09T05:52:24.766Z,99528.13
2022-08-09T05:54:52.686Z,99520.41
2022-08-09T05:57:24.998Z,99528.22
2022-08-09T06:00:13.307Z,99531.03
2022-08-09T06:02:42.292Z,99533.81
2022-08-09T06:05:14.337Z,99531.91
2022-08-09T06:07:44.002Z,99535.97
2022-08-09T06:10:19.894Z,99529.22
2022-08-09T06:12:57.822Z,99536.50
2022-08-09T06:15:31.886Z,99542.72
2022-08-09T06:17:59.597Z,99540.34
2022-08-09T06:20:28.797Z,99542.31
2022-08-09T06:22:58.099Z,99545.56
2022-08-09T06:25:26.473Z,99545.91
2022-08-09T06:27:54.004Z,99534.13
2022-08-09T06:30:21.499Z,99542.91
2022-08-09T06:32:59.898Z,99550.41
2022-08-09T06:35:56.917Z,99544.44
2022-08-09T06:38:35.078Z,99555.22
2022-08-09T06:41:18.143Z,99549.38
2022-08-09T06:43:48.191Z,99553.97
2022-08-09T06:46:39.602Z,99557.09
2022-08-09T06:49:04.973Z,99561.06
2022-08-09T06:51:39.058Z,99552.06
2022-08-09T06:54:09.307Z,99561.25
2022-08-09T06:56:46.262Z,99557.94
2022-08-09T07:00:51.796Z,99571.00
2022-08-09T07:02:03.925Z,99563.81
2022-08-09T07:04:33.024Z,99563.47
2022-08-09T07:07:05.401Z,99572.81
2022-08-09T07:09:55.564Z,99565.19
2022-08-09T07:12:37.876Z,99565.56
2022-08-09T07:16:39.741Z,99564.56
2022-08-09T07:18:02.564Z,99565.81
2022-08-09T07:20:30.319Z,99577.63
2022-08-09T07:23:01.944Z,99564.16
2022-08-09T07:25:45.750Z,99566.38
2022-08-09T07:28:19.044Z,99568.47
2022-08-09T07:30:54.199Z,99574.22
2022-08-09T07:33:52.811Z,99572.50
2022-08-09T07:36:23.417Z,99573.72
2022-08-09T07:39:00.945Z,99578.97
2022-08-09T07:41:32.989Z,99576.81
2022-08-09T07:44:05.912Z,99576.66
2022-08-09T07:46:34.166Z,99571.03
2022-08-09T07:49:05.558Z,99570.06
2022-08-09T07:52:03.425Z,99569.72
2022-08-09T07:54:28.041Z,99572.38
2022-08-09T07:56:58.588Z,99576.06
2022-08-09T07:59:45.684Z,99570.19
2022-08-09T08:02:19.773Z,99565.53
2022-08-09T08:04:48.965Z,99566.56
2022-08-09T08:08:43.539Z,99564.34
2022-08-09T08:10:10.795Z,99574.28
2022-08-09T08:12:45.278Z,99562.72
2022-08-09T08:15:24.127Z,99574.19
2022-08-09T08:17:55.503Z,99568.66
2022-08-09T08:20:32.778Z,99564.84
2022-08-09T08:23:16.236Z,99573.13
2022-08-09T08:25:53.873Z,99564.34
2022-08-09T08:28:35.079Z,99558.44
2022-08-09T08:31:14.494Z,99563.25
2022-08-09T08:33:53.409Z,99551.59
2022-08-09T08:36:29.208Z,99553.19
2022-08-09T08:38:59.724Z,99550.41
2022-08-09T08:41:50.557Z,99541.94
2022-08-09T08:44:27.116Z,99557.91
2022-08-09T08:47:05.061Z,99547.25
2022-08-09T08:49:46.851Z,99542.44
2022-08-09T08:52:57.532Z,99553.41
2022-08-09T08:55:19.123Z,99545.28
2022-08-09T08:57:56.625Z,99548.47
2022-08-09T09:00:34.775Z,99544.31
2022-08-09T09:03:12.145Z,99546.88
2022-08-09T09:05:59.715Z,99539.66
2022-08-09T09:08:42.808Z,99539.59
2022-08-09T09:11:17.171Z,99530.50
2022-08-09T09:13:57.621Z,99536.53
2022-08-09T09:16:34.343Z,99524.06
2022-08-09T09:22:16.418Z,99535.69
2022-08-09T09:26:00.321Z,99529.41
2022-08-09T09:28:06.117Z,99535.25
2022-08-09T09:30:40.809Z,99527.13
2022-08-09T09:33:16.054Z,99527.03
2022-08-09T09:36:04.018Z,99515.56
2022-08-09T09:38:57.251Z,99516.81
2022-08-09T09:41:26.268Z,99513.44
2022-08-09T09:44:13.444Z,99521.03
2022-08-09T09:46:46.105Z,99523.06
2022-08-09T09:49:56.153Z,99528.72
2022-08-09T09:52:16.524Z,99530.97
2022-08-09T09:55:23.858Z,99527.41
2022-08-09T09:58:17.948Z,99520.34
2022-08-09T10:00:54.425Z,99525.28
2022-08-09T10:03:57.406Z,99514.00
2022-08-09T10:06:32.073Z,99497.63
2022-08-09T10:09:21.559Z,99504.66
2022-08-09T10:12:14.818Z,99501.22
2022-08-09T10:14:51.709Z,99501.94
2022-08-09T10:17:39.854Z,99507.50
2022-08-09T10:20:32.916Z,99505.44
2022-08-09T10:23:24.808Z,99505.13
2022-08-09T10:26:06.122Z,99507.69
2022-08-09T10:28:38.431Z,99508.59
2022-08-09T10:34:10.809Z,99489.88
2022-08-09T10:36:54.209Z,99499.00
2022-08-09T10:39:26.976Z,99493.63
2022-08-09T10:41:56.324Z,99488.81
2022-08-09T10:44:30.336Z,99487.91
2022-08-09T10:48:14.332Z,99477.22
2022-08-09T10:51:13.615Z,99495.38
2022-08-09T10:54:12.171Z,99476.97
2022-08-09T10:56:43.222Z,99474.03
2022-08-09T10:59:31.110Z,99475.03
2022-08-09T11:03:14.939Z,99479.09
2022-08-09T11:05:25.222Z,99475.78
2022-08-09T11:08:47.081Z,99473.56
2022-08-09T11:11:19.296Z,99466.97
2022-08-09T11:14:28.940Z,99480.59
2022-08-09T11:16:59.688Z,99487.44
2022-08-09T11:20:10.199Z,99503.16
2022-08-09T11:22:49.170Z,99478.84
2022-08-09T11:25:36.357Z,99491.06
2022-08-09T11:28:38.908Z,99483.75
2022-08-09T11:31:50.480Z,99482.06
2022-08-09T11:34:44.126Z,99467.53
2022-08-09T11:37:27.938Z,99463.16
2022-08-09T11:40:14.476Z,99479.03
2022-08-09T11:42:52.891Z,99467.72
2022-08-09T11:45:43.615Z,99465.78
2022-08-09T11:48:27.539Z,99473.63
2022-08-09T11:52:49.358Z,99470.06
2022-08-09T11:53:59.238Z,99465.84
2022-08-09T11:56:41.871Z,99472.28
2022-08-09T11:59:12.130Z,99457.84
2022-08-09T12:02:17.022Z,99453.38
2022-08-09T12:04:37.198Z,99433.13
2022-08-09T12:07:08.159Z,99447.91
2022-08-09T12:09:36.997Z,99435.50
2022-08-09T12:12:12.394Z,99431.44
2022-08-09T12:15:04.196Z,99432.25
2022-08-09T12:17:42.797Z,99444.25
2022-08-09T12:20:21.443Z,99435.13
2022-08-09T12:23:00.249Z,99429.56
2022-08-09T12:25:37.037Z,99435.06
2022-08-09T12:29:10.809Z,99446.97
2022-08-09T12:31:10.868Z,99435.22
2022-08-09T12:33:58.787Z,99432.63
2022-08-09T12:36:31.400Z,99422.81
2022-08-09T12:39:00.592Z,99435.88
2022-08-09T12:41:39.761Z,99418.06
2022-08-09T12:44:10.199Z,99418.00
2022-08-09T12:46:48.838Z,99423.34
2022-08-09T12:49:18.296Z,99414.22
2022-08-09T12:52:12.022Z,99423.91
2022-08-09T12:56:10.959Z,99428.09
2022-08-09T12:57:49.479Z,99406.19
2022-08-09T13:00:25.485Z,99411.41
2022-08-09T13:03:00.998Z,99406.97
2022-08-09T13:06:14.298Z,99406.22
2022-08-09T13:08:41.008Z,99401.53
2022-08-09T13:11:34.842Z,99397.09
2022-08-09T13:14:40.761Z,99402.78
2022-08-09T13:17:21.808Z,99401.13
2022-08-09T13:20:14.361Z,99395.09
2022-08-09T13:23:06.021Z,99380.28
2022-08-09T13:25:55.845Z,99380.78
2022-08-09T13:28:50.628Z,99382.69
2022-08-09T13:32:15.428Z,99382.56
2022-08-09T13:34:08.280Z,99374.03
2022-08-09T13:36:43.632Z,99364.03
2022-08-09T13:41:20.918Z,99369.72
2022-08-09T13:42:45.051Z,99368.56
2022-08-09T13:45:31.800Z,99378.34
2022-08-09T13:51:28.734Z,99375.19
2022-08-09T13:53:56.453Z,99365.13
2022-08-09T13:57:43.008Z,99375.13
2022-08-09T14:02:00.481Z,99361.66
2022-08-09T14:04:24.950Z,99359.72
2022-08-09T14:14:23.376Z,99371.03
2022-08-09T14:16:48.035Z,99367.22
2022-08-09T14:19:25.209Z,99361.66
2022-08-09T14:22:02.397Z,99360.97
2022-08-09T14:24:32.178Z,99353.22
2022-08-09T14:28:19.349Z,99373.91
2022-08-09T14:30:49.475Z,99358.09
2022-08-09T14:34:34.154Z,99342.59
2022-08-09T14:38:22.130Z,99340.19
2022-08-09T14:42:06.849Z,99345.75
2022-08-09T14:44:59.131Z,99345.44
2022-08-09T14:47:39.794Z,99345.13
2022-08-09T14:50:10.942Z,99356.16
2022-08-09T14:52:38.956Z,99343.91
2022-08-09T14:55:08.207Z,99344.06
2022-08-09T14:57:43.492Z,99347.78
2022-08-09T15:00:12.263Z,99344.25
2022-08-09T15:02:40.274Z,99345.88
2022-08-09T15:05:10.682Z,99333.94
2022-08-09T15:07:38.318Z,99346.34
2022-08-09T15:10:14.215Z,99336.03
2022-08-09T15:12:44.960Z,99328.00
2022-08-09T15:15:22.711Z,99327.84
2022-08-09T15:17:53.284Z,99333.59
2022-08-09T15:22:00.869Z,99337.97
2022-08-09T15:24:01.089Z,99337.72
2022-08-09T15:25:59.212Z,99329.28
2022-08-09T15:28:32.985Z,99331.19
2022-08-09T15:31:11.713Z,99341.56
2022-08-09T15:34:31.430Z,99321.03
2022-08-09T15:36:36.608Z,99325.97
2022-08-09T15:39:05.049Z,99316.34
2022-08-09T15:41:33.328Z,99319.03
2022-08-09T15:44:02.926Z,99323.06
2022-08-09T15:46:34.023Z,99310.59
2022-08-09T15:49:22.113Z,99315.72
2022-08-09T15:52:05.279Z,99301.66
2022-08-09T15:54:49.485Z,99313.22
2022-08-09T15:57:34.596Z,99312.50
2022-08-09T16:00:25.714Z,99308.38
2022-08-09T16:02:56.671Z,99319.78
2022-08-09T16:05:53.501Z,99311.94
2022-08-09T16:08:30.005Z,99307.88
2022-08-09T16:11:01.476Z,99314.34
2022-08-09T16:14:03.620Z,99311.97
2022-08-09T16:16:19.990Z,99309.88
2022-08-09T16:18:53.418Z,99308.16
2022-08-09T16:21:25.415Z,99313.72
2022-08-09T16:23:58.276Z,99313.97
2022-08-09T16:26:33.782Z,99311.69
2022-08-09T16:29:16.027Z,99304.63
2022-08-09T16:32:18.960Z,99310.28
2022-08-09T16:34:55.703Z,99301.78
2022-08-09T16:37:55.605Z,99308.41
2022-08-09T16:40:29.531Z,99304.34
2022-08-09T16:43:05.107Z,99317.28
2022-08-09T16:45:32.707Z,99310.41
2022-08-09T16:48:40.518Z,99305.94
2022-08-09T16:50:59.302Z,99301.56
2022-08-09T16:53:35.087Z,99305.47
2022-08-09T16:56:09.755Z,99312.44
2022-08-09T16:58:42.708Z,99323.75
2022-08-09T17:01:24.534Z,99317.34
2022-08-09T17:03:53.284Z,99327.69
2022-08-09T17:06:32.089Z,99322.81
2022-08-09T17:09:17.765Z,99306.78
2022-08-09T17:11:52.646Z,99316.78
2022-08-09T17:14:27.571Z,99315.38
2022-08-09T17:17:01.989Z,99315.22
2022-08-09T17:20:04.948Z,99314.72
2022-08-09T17:22:30.688Z,99321.00
2022-08-09T17:25:02.612Z,99315.13
2022-08-09T17:27:38.154Z,99313.97
2022-08-09T17:30:13.165Z,99309.81
2022-08-09T17:32:45.196Z,99314.91
2022-08-09T17:35:15.447Z,99321.03
2022-08-09T17:38:11.305Z,99325.47
2022-08-09T17:40:35.362Z,99322.56
2022-08-09T17:43:32.210Z,99322.00
2022-08-09T17:46:03.417Z,99327.00
2022-08-09T17:48:38.611Z,99325.06
2022-08-09T17:51:18.554Z,99328.94
2022-08-09T17:53:55.792Z,99333.84
2022-08-09T17:56:32.479Z,99332.19
2022-08-09T17:59:11.364Z,99329.28
2022-08-09T18:02:07.464Z,99327.38
2022-08-09T18:04:31.011Z,99330.44
2022-08-09T18:06:59.399Z,99333.19
2022-08-09T18:09:40.176Z,99330.63
2022-08-09T18:12:19.428Z,99331.94
2022-08-09T18:14:54.582Z,99336.56
2022-08-09T18:18:02.124Z,99336.72
2022-08-09T18:20:54.062Z,99346.34
2022-08-09T18:23:06.891Z,99347.16
2022-08-09T18:25:52.972Z,99340.16
2022-08-09T18:30:40.979Z,99341.69
2022-08-09T18:31:24.758Z,99347.88
2022-08-09T18:34:00.037Z,99344.53
2022-08-09T18:36:32.063Z,99346.88
2022-08-09T18:39:02.914Z,99351.41
2022-08-09T18:41:35.097Z,99351.81
2022-08-09T18:44:12.421Z,99358.00
2022-08-09T18:46:47.764Z,99359.47
2022-08-09T18:49:25.521Z,99363.84
2022-08-09T18:51:54.947Z,99366.03
2022-08-09T18:54:29.573Z,99367.06
2022-08-09T18:57:06.227Z,99369.81
2022-08-09T18:59:51.521Z,99369.63
2022-08-09T19:02:32.216Z,99376.25
2022-08-09T19:05:20.575Z,99387.72
2022-08-09T19:08:04.473Z,99383.16
2022-08-09T19:10:39.117Z,99383.19
2022-08-09T19:13:20.764Z,99383.41
2022-08-09T19:15:52.514Z,99391.06
2022-08-09T19:18:34.315Z,99382.66
2022-08-09T19:21:09.191Z,99395.97
2022-08-09T19:24:37.241Z,99402.75
2022-08-09T19:26:32.098Z,99399.47
2022-08-09T19:29:18.442Z,99404.72
2022-08-09T19:31:51.077Z,99412.34
2022-08-09T19:34:22.725Z,99409.97
2022-08-09T19:36:57.628Z,99412.13
2022-08-09T19:39:43.553Z,99415.16
2022-08-09T19:42:19.704Z,99406.09
2022-08-09T19:44:51.850Z,99406.50
2022-08-09T19:47:23.511Z,99410.72
2022-08-09T19:50:07.709Z,99405.75
2022-08-09T19:52:49.258Z,99416.41
2022-08-09T19:55:31.124Z,99422.91
2022-08-09T19:58:16.378Z,99428.00
2022-08-09T20:00:46.351Z,99428.13
2022-08-09T20:04:14.574Z,99428.38
2022-08-09T20:06:04.855Z,99433.13
2022-08-09T20:08:56.818Z,99428.94
2022-08-09T20:11:43.072Z,99428.69
2022-08-09T20:14:16.741Z,99435.25
2022-08-09T20:17:11.310Z,99440.31
2022-08-09T20:19:48.517Z,99430.63
2022-08-09T20:22:24.240Z,99433.75
2022-08-09T20:24:59.572Z,99438.97
2022-08-09T20:27:29.142Z,99427.94
2022-08-09T20:29:57.911Z,99434.44
2022-08-09T20:32:31.341Z,99426.44
2022-08-09T20:35:02.238Z,99431.09
2022-08-09T20:38:18.594Z,99431.22
2022-08-09T20:40:27.373Z,99432.16
2022-08-09T20:42:59.983Z,99427.16
2022-08-09T20:46:00.566Z,99424.38
2022-08-09T20:48:30.911Z,99419.91
2022-08-09T20:51:01.133Z,99421.22
2022-08-09T20:53:37.095Z,99428.09
2022-08-09T20:56:19.905Z,99426.25
2022-08-09T20:58:58.638Z,99433.91
2022-08-09T21:01:34.696Z,99434.69
2022-08-09T21:05:56.779Z,99437.97
2022-08-09T21:07:11.752Z,99434.72
2022-08-09T21:09:56.670Z,99444.41
2022-08-09T21:15:24.911Z,99446.69
2022-08-09T21:18:21.687Z,99446.41
2022-08-09T21:20:54.179Z,99444.53
2022-08-09T21:23:36.139Z,99448.56
2022-08-09T21:26:11.460Z,99443.03
2022-08-09T21:28:39.630Z,99444.81
2022-08-09T21:31:24.306Z,99448.81
2022-08-09T21:34:11.822Z,99451.69
2022-08-09T21:36:39.249Z,99448.50
2022-08-09T21:39:28.407Z,99449.19
2022-08-09T21:42:10.991Z,99449.34
2022-08-09T21:44:41.112Z,99449.31
2022-08-09T21:47:14.119Z,99451.22
2022-08-09T21:49:45.346Z,99453.88
2022-08-09T21:52:20.305Z,99454.50
2022-08-09T21:55:03.777Z,99453.88
2022-08-09T21:57:38.734Z,99456.22
2022-08-09T22:00:33.694Z,99448.19
2022-08-09T22:03:19.139Z,99459.38
2022-08-09T22:05:54.089Z,99463.66
2022-08-09T22:08:26.922Z,99462.81
2022-08-09T22:11:05.130Z,99448.53
2022-08-09T22:13:43.854Z,99458.72
2022-08-09T22:16:12.123Z,99453.78
2022-08-09T22:18:53.235Z,99457.91
2022-08-09T22:21:45.286Z,99455.91
2022-08-09T22:24:21.211Z,99463.00
2022-08-09T22:26:54.001Z,99467.78
2022-08-09T22:29:28.901Z,99468.19
2022-08-09T22:32:07.009Z,99464.91
2022-08-09T22:35:02.627Z,99461.38
2022-08-09T22:37:42.091Z,99459.06
2022-08-09T22:40:18.157Z,99471.22
2022-08-09T22:42:47.721Z,99463.88
2022-08-09T22:48:11.604Z,99467.75
2022-08-09T22:48:13.130Z,99466.91
2022-08-09T22:50:52.997Z,99470.59
2022-08-09T22:53:20.577Z,99471.66
2022-08-09T22:56:30.563Z,99474.94
2022-08-09T22:58:35.399Z,99470.91
2022-08-09T23:01:05.955Z,99474.31
2022-08-09T23:04:04.276Z,99471.16
2022-08-09T23:06:34.791Z,99478.66
2022-08-09T23:09:07.070Z,99473.66
2022-08-09T23:11:34.945Z,99469.38
2022-08-09T23:14:03.638Z,99472.19
2022-08-09T23:16:31.917Z,99466.63
2022-08-09T23:19:00.502Z,99458.41
2022-08-09T23:21:33.527Z,99456.78
2022-08-09T23:26:54.274Z,99455.22
2022-08-09T23:29:21.452Z,99460.16
2022-08-09T23:31:53.808Z,99453.78
2022-08-09T23:34:21.662Z,99449.84
2022-08-09T23:36:48.779Z,99447.41
2022-08-09T23:39:16.056Z,99444.88
2022-08-09T23:41:43.388Z,99448.41
2022-08-09T23:44:10.814Z,99443.72
2022-08-09T23:46:38.189Z,99446.72
2022-08-09T23:49:05.558Z,99450.69
2022-08-09T23:51:33.110Z,99447.94
2022-08-09T23:54:01.876Z,99449.53
2022-08-09T23:56:51.999Z,99453.53
2022-08-09T23:59:22.297Z,99447.66
